Flight Track Log - Related Links

Times and Time Zones

All times are in EDT time to prevent confusion due to time zone crossing. See the N816BG flight status page for this flight to view local times or setup timezone preferences in your user account.

Time Position Orientation Groundspeed Altitude Reporting Facility
EDT Latitude Longitude Course Direction KTS MPH feet Rate Location/Type
Tue 07:56:38 AM 42.8483 -85.5883 214° Southwest 214 246 2,900  Level Chicago Center
Tue 07:57:40 AM 42.7925 -85.6392 214° Southwest 233 268 5,800 2,903 Climbing Chicago Center
Tue 07:58:42 AM 42.7361 -85.6950 216° Southwest 245 282 8,900 2,661 Climbing Chicago Center
Tue 07:59:44 AM 42.6786 -85.7511 216° Southwest 250 288 11,300 2,439 Climbing Chicago Center
Tue 08:00:45 AM 42.6175 -85.8103 215° Southwest 263 303 13,900 2,244 Climbing Chicago Center
Tue 08:01:47 AM 42.5556 -85.8697 215° Southwest 270 311 15,900 1,839 Climbing Chicago Center
Tue 08:02:49 AM 42.4914 -85.9308 215° Southwest 277 319 17,700 1,694 Climbing Chicago Center
Tue 08:03:51 AM 42.4111 -86.0072 215° Southwest 288 331 19,400 1,500 Climbing Chicago Center
Tue 08:04:53 AM 42.3428 -86.0744 216° Southwest 299 344 20,800 1,161 Climbing Chicago Center
Tue 08:05:55 AM 42.2808 -86.1331 215° Southwest 305 351 21,800 1,248 Climbing Chicago Center
Tue 08:06:58 AM 42.2028 -86.2267 222° Southwest 313 360 23,400 1,200 Climbing Chicago Center
Tue 08:08:00 AM 42.1411 -86.3139 226° Southwest 318 366 24,300 919 Climbing Chicago Center
Tue 08:09:02 AM 42.0769 -86.4044 226° Southwest 328 377 25,300 1,016 Climbing Chicago Center
Tue 08:10:04 AM 42.0158 -86.4936 227° Southwest 330 380 26,400 919 Climbing Chicago Center
Tue 08:11:06 AM 41.9531 -86.5867 228° Southwest 333 383 27,200 774 Climbing Chicago Center
Tue 08:12:08 AM 41.8700 -86.6903 223° Southwest 342 394 28,000 726 Climbing Chicago Center
Tue 08:13:10 AM 41.7986 -86.7564 215° Southwest 346 398 28,700 919 Climbing Chicago Center
Tue 08:14:12 AM 41.7039 -86.8442 215° Southwest 347 399 29,900 871 Climbing Chicago Center
Tue 08:15:14 AM 41.6258 -86.9169 215° Southwest 344 396 30,500 726 Climbing Chicago Center
Tue 08:16:16 AM 41.5472 -86.9886 214° Southwest 343 395 31,400 726 Climbing Chicago Center
Tue 08:17:18 AM 41.4714 -87.0589 215° Southwest 335 386 32,000 629 Climbing Chicago Center
Tue 08:18:20 AM 41.3931 -87.1294 214° Southwest 336 387 32,700 629 Climbing Chicago Center
Tue 08:19:22 AM 41.3167 -87.2014 215° Southwest 335 386 33,300 532 Climbing Chicago Center
Tue 08:20:24 AM 41.2408 -87.2711 215° Southwest 334 384 33,800 339 Climbing Chicago Center
Tue 08:21:26 AM 41.1478 -87.3553 214° Southwest 335 386 34,000 97 Climbing Chicago Center
Tue 08:22:28 AM 41.0667 -87.4300 215° Southwest 347 399 34,000  Level Chicago Center
Tue 08:23:31 AM 40.9825 -87.5033 213° Southwest 356 410 34,000  Level Chicago Center
Tue 08:24:33 AM 40.8978 -87.5814 215° Southwest 364 419 34,000  Level Chicago Center
Tue 08:25:35 AM 40.8092 -87.6597 214° Southwest 376 433 34,000 194 Level Chicago Center
Tue 08:26:37 AM 40.7225 -87.7394 215° Southwest 379 436 34,400 435 Climbing Chicago Center
Tue 08:27:39 AM 40.6186 -87.8317 214° Southwest 377 434 34,900 290 Climbing Chicago Center
Tue 08:28:41 AM 40.5331 -87.9075 214° Southwest 372 428 35,000 48 Climbing Chicago Center
Tue 08:29:43 AM 40.4475 -87.9839 214° Southwest 372 428 35,000  Level Chicago Center
Tue 08:30:45 AM 40.3597 -88.0611 214° Southwest 375 432 35,000  Level Chicago Center
Tue 08:31:47 AM 40.2719 -88.1378 214° Southwest 376 433 35,000  Level Chicago Center
Tue 08:32:50 AM 40.1814 -88.2172 214° Southwest 379 436 35,000  Level Chicago Center
Tue 08:33:52 AM 40.0928 -88.2942 214° Southwest 380 437 35,000  Level Chicago Center
Tue 08:34:59 AM 39.9867 -88.3872 214° Southwest 381 438 35,000 141 Level Kansas City Center
Tue 08:36:00 AM 39.8983 -88.4636 214° Southwest 382 440 35,300 341 Climbing Kansas City Center
Tue 08:37:02 AM 39.8103 -88.5394 213° Southwest 382 440 35,700 341 Climbing Kansas City Center
Tue 08:38:03 AM 39.7247 -88.6133 214° Southwest 375 432 36,000 146 Climbing Kansas City Center
Tue 08:39:05 AM 39.6397 -88.6867 214° Southwest 366 421 36,000  Level Kansas City Center
Tue 08:40:08 AM 39.5547 -88.7600 214° Southwest 366 421 36,000  Level Kansas City Center
Tue 08:41:09 AM 39.4669 -88.8347 213° Southwest 371 427 36,000  Level Kansas City Center
Tue 08:42:10 AM 39.3764 -88.9131 214° Southwest 373 429 36,000  Level Kansas City Center
Tue 08:43:15 AM 39.2878 -88.9881 213° Southwest 376 433 36,000  Level Kansas City Center
Tue 08:44:14 AM 39.1825 -89.0772 213° Southwest 377 434 36,000  Level Kansas City Center
Tue 08:45:17 AM 39.0981 -89.1489 213° Southwest 377 434 36,000  Level Kansas City Center
Tue 08:46:18 AM 39.0103 -89.2217 213° Southwest 377 434 36,000  Level Kansas City Center
Tue 08:47:19 AM 38.9211 -89.2964 213° Southwest 377 434 36,000  Level Kansas City Center
Tue 08:48:22 AM 38.8333 -89.3703 213° Southwest 377 434 36,000  Level Kansas City Center
Tue 08:49:23 AM 38.7281 -89.4575 213° Southwest 377 434 36,000  Level Kansas City Center
Tue 08:50:27 AM 38.6394 -89.5303 213° Southwest 377 434 36,000  Level Kansas City Center
Tue 08:51:28 AM 38.5497 -89.6075 214° Southwest 376 433 36,000  Level Kansas City Center
Tue 08:52:29 AM 38.4547 -89.6858 213° Southwest 376 433 36,000  Level Kansas City Center
Tue 08:53:30 AM 38.3717 -89.7547 213° Southwest 377 434 36,000  Level Kansas City Center
Tue 08:54:34 AM 38.2817 -89.8264 212° Southwest 377 434 36,000  Level Kansas City Center
Tue 08:55:35 AM 38.1931 -89.8992 213° Southwest 378 435 36,000  Level Kansas City Center
Tue 08:56:39 AM 38.0869 -89.9878 213° Southwest 384 442 36,000  Level Kansas City Center
Tue 08:57:39 AM 37.9983 -90.0600 213° Southwest 383 441 36,000  Level Kansas City Center
Tue 08:58:40 AM 37.9067 -90.1339 212° Southwest 382 440 36,000  Level Kansas City Center
Tue 08:59:44 AM 37.8181 -90.2050 212° Southwest 381 438 36,000  Level Kansas City Center
Tue 09:00:45 AM 37.7292 -90.2781 213° Southwest 381 438 36,000  Level Kansas City Center
Tue 09:01:46 AM 37.6389 -90.3506 212° Southwest 381 438 36,000  Level Kansas City Center
Tue 09:02:50 AM 37.5494 -90.4228 213° Southwest 381 438 36,000  Level Kansas City Center
Tue 09:03:51 AM 37.4586 -90.4956 212° Southwest 383 441 36,000  Level Kansas City Center
Tue 09:04:54 AM 37.3681 -90.5664 212° Southwest 383 441 36,000  Level Kansas City Center
Tue 09:05:55 AM 37.2578 -90.6550 213° Southwest 383 441 36,000  Level Kansas City Center
Tue 09:06:55 AM 37.1664 -90.7281 213° Southwest 384 442 36,000  Level Kansas City Center
Tue 09:07:59 AM 37.0761 -90.7981 212° Southwest 384 442 36,000  Level Kansas City Center
Tue 09:09:00 AM 36.9864 -90.8700 213° Southwest 384 442 36,000  Level Kansas City Center
Tue 09:10:04 AM 36.8944 -90.9403 211° Southwest 384 442 36,000  Level Kansas City Center
Tue 09:11:04 AM 36.8039 -91.0128 213° Southwest 385 443 36,000  Level Kansas City Center
Tue 09:12:05 AM 36.6950 -91.0972 212° Southwest 385 443 36,000  Level Kansas City Center
Tue 09:13:09 AM 36.6133 -91.1600 212° Southwest 386 444 36,000  Level Kansas City Center
Tue 09:14:10 AM 36.5133 -91.2389 212° Southwest 386 444 36,000  Level Kansas City Center
Tue 09:15:37 AM 36.3872 -91.3372 212° Southwest 386 444 36,000  Level Memphis Center
Tue 09:16:39 AM 36.2983 -91.4081 213° Southwest 386 444 36,000  Level Memphis Center
Tue 09:17:41 AM 36.1892 -91.4908 211° Southwest 386 444 36,000  Level Memphis Center
Tue 09:18:43 AM 36.0967 -91.5611 212° Southwest 386 444 36,000  Level Memphis Center
Tue 09:19:46 AM 36.0061 -91.6319 212° Southwest 386 444 36,000  Level Memphis Center
Tue 09:20:48 AM 35.9122 -91.7006 211° Southwest 386 444 36,000  Level Memphis Center
Tue 09:21:50 AM 35.8200 -91.7711 212° Southwest 387 445 36,000  Level Memphis Center
Tue 09:22:52 AM 35.7275 -91.8408 211° Southwest 387 445 36,000  Level Memphis Center
Tue 09:23:54 AM 35.6178 -91.9236 212° Southwest 387 445 36,000  Level Memphis Center
Tue 09:24:56 AM 35.5247 -91.9933 211° Southwest 387 445 36,000  Level Memphis Center
Tue 09:25:58 AM 35.4339 -92.0622 212° Southwest 386 444 36,000  Level Memphis Center
Tue 09:27:00 AM 35.3400 -92.1319 211° Southwest 387 445 36,000  Level Memphis Center
Tue 09:28:02 AM 35.2456 -92.2028 211° Southwest 389 448 36,000  Level Memphis Center
Tue 09:29:04 AM 35.1525 -92.2719 211° Southwest 391 450 36,000  Level Memphis Center
Tue 09:30:06 AM 35.0583 -92.3431 212° Southwest 391 450 36,000  Level Memphis Center
Tue 09:31:08 AM 34.9442 -92.4264 211° Southwest 392 451 36,000  Level Memphis Center
Tue 09:32:10 AM 34.8486 -92.4978 212° Southwest 397 457 36,000  Level Memphis Center
Tue 09:33:12 AM 34.7522 -92.5681 211° Southwest 398 458 36,000  Level Memphis Center
Tue 09:34:14 AM 34.6553 -92.6394 211° Southwest 402 463 36,000  Level Memphis Center
Tue 09:35:16 AM 34.5575 -92.7111 211° Southwest 403 464 36,000  Level Memphis Center
Tue 09:36:18 AM 34.4597 -92.7833 211° Southwest 405 466 36,000  Level Memphis Center
Tue 09:37:21 AM 34.3606 -92.8550 211° Southwest 410 472 36,000  Level Memphis Center
Tue 09:38:23 AM 34.2586 -92.9286 211° Southwest 410 472 36,000  Level Memphis Center
Tue 09:39:25 AM 34.1392 -93.0150 211° Southwest 413 475 36,000  Level Memphis Center
Tue 09:40:27 AM 34.0394 -93.0875 211° Southwest 414 476 36,000  Level Memphis Center
Tue 09:41:29 AM 33.9389 -93.1586 210° Southwest 416 479 36,000  Level Memphis Center
Tue 09:42:31 AM 33.8392 -93.2317 211° Southwest 416 479 36,000  Level Memphis Center
Tue 09:43:33 AM 33.7383 -93.3039 211° Southwest 417 480 36,000  Level Memphis Center
Tue 09:44:35 AM 33.6369 -93.3744 210° Southwest 417 480 36,000  Level Memphis Center
Tue 09:46:04 AM 33.4778 -93.4903 211° Southwest 419 482 36,000  Level Fort Worth Center
Tue 09:47:06 AM 33.3758 -93.5622 211° Southwest 419 482 36,000  Level Fort Worth Center
Tue 09:48:08 AM 33.2728 -93.6336 210° Southwest 421 484 36,000  Level Fort Worth Center
Tue 09:49:10 AM 33.1772 -93.7189 217° Southwest 421 484 36,000  Level Fort Worth Center
Tue 09:50:12 AM 33.1000 -93.8256 229° Southwest 420 483 36,000  Level Fort Worth Center
Tue 09:51:15 AM 33.0228 -93.9308 229° Southwest 420 483 36,000  Level Fort Worth Center
Tue 09:52:17 AM 32.9317 -94.0564 229° Southwest 415 478 36,000  Level Fort Worth Center
Tue 09:53:19 AM 32.8553 -94.1608 229° Southwest 417 480 36,000  Level Fort Worth Center
Tue 09:54:21 AM 32.7786 -94.2647 229° Southwest 417 480 36,000  Level Fort Worth Center
Tue 09:55:23 AM 32.7011 -94.3686 228° Southwest 418 481 36,000  Level Fort Worth Center
Tue 09:56:25 AM 32.6244 -94.4731 229° Southwest 418 481 36,000  Level Fort Worth Center
Tue 09:57:27 AM 32.5478 -94.5775 229° Southwest 420 483 36,000  Level Fort Worth Center
Tue 09:58:29 AM 32.4542 -94.7025 228° Southwest 421 484 36,000  Level Fort Worth Center
Tue 09:59:31 AM 32.3606 -94.7861 217° Southwest 425 489 36,000  Level Fort Worth Center
Tue 10:00:33 AM 32.2558 -94.8508 208° Southwest 429 494 36,000  Level Fort Worth Center
Tue 10:01:36 AM 32.1475 -94.9175 208° Southwest 429 494 36,000  Level Fort Worth Center
Tue 10:02:38 AM 32.0406 -94.9806 207° Southwest 429 494 36,000  Level Fort Worth Center
Tue 10:03:40 AM 31.9339 -95.0433 207° Southwest 430 495 36,000  Level Fort Worth Center
Tue 10:04:42 AM 31.8067 -95.1175 206° Southwest 429 494 36,000  Level Fort Worth Center
Tue 10:05:44 AM 31.6994 -95.1806 207° Southwest 432 497 36,000  Level Fort Worth Center
Tue 10:06:46 AM 31.5931 -95.2442 207° Southwest 431 496 36,000  Level Fort Worth Center
Tue 10:07:48 AM 31.4847 -95.3072 206° Southwest 436 502 36,000  Level Fort Worth Center
Tue 10:08:50 AM 31.3619 -95.3789 206° Southwest 439 505 36,000  Level Fort Worth Center
Tue 10:09:38 AM 31.2881 -95.4214 206° Southwest 440 506 36,000  Level Houston Center
Tue 10:10:40 AM 31.1564 -95.4969 206° Southwest 441 507 36,000  Level Houston Center
Tue 10:11:42 AM 31.0483 -95.5600 207° Southwest 438 504 36,000  Level Houston Center
Tue 10:12:44 AM 30.9406 -95.6228 207° Southwest 438 504 36,000  Level Houston Center
Tue 10:13:46 AM 30.8322 -95.6850 206° Southwest 437 503 36,000  Level Houston Center
Tue 10:14:49 AM 30.7244 -95.7469 206° Southwest 435 501 36,000  Level Houston Center
Tue 10:15:51 AM 30.5961 -95.8219 207° Southwest 431 496 36,000  Level Houston Center
Tue 10:16:53 AM 30.4878 -95.8839 206° Southwest 433 498 36,000  Level Houston Center
Tue 10:17:55 AM 30.3736 -95.9478 206° Southwest 435 501 36,000  Level Houston Center
Tue 10:18:57 AM 30.2675 -96.0103 207° Southwest 434 499 36,000  Level Houston Center
Tue 10:19:59 AM 30.1636 -96.0678 206° Southwest 433 498 36,000  Level Houston Center
Tue 10:21:02 AM 30.0475 -96.1353 207° Southwest 439 505 36,000  Level Houston Center
Tue 10:22:04 AM 29.9381 -96.1956 206° Southwest 439 505 36,000  Level Houston Center
Tue 10:23:06 AM 29.8089 -96.2697 206° Southwest 436 502 36,000  Level Houston Center
Tue 10:24:08 AM 29.6997 -96.3308 206° Southwest 436 502 36,000  Level Houston Center
Tue 10:25:10 AM 29.5900 -96.3864 204° Southwest 434 499 36,000  Level Houston Center
Tue 10:26:13 AM 29.4783 -96.4408 203° Southwest 434 499 36,000  Level Houston Center
Tue 10:27:15 AM 29.3658 -96.4953 203° Southwest 436 502 36,000  Level Houston Center
Tue 10:28:17 AM 29.2528 -96.5500 203° Southwest 437 503 36,000  Level Houston Center
Tue 10:29:19 AM 29.1378 -96.6067 203° Southwest 438 504 36,000  Level Houston Center
Tue 10:30:21 AM 29.0003 -96.6714 202° Southwest 439 505 36,000 -48 Level Houston Center
Tue 10:31:23 AM 28.8869 -96.7281 204° Southwest 441 507 35,900  Descending Houston Center
Tue 10:32:26 AM 28.7742 -96.7831 203° Southwest 440 506 36,000 48 Climbing Houston Center
Tue 10:33:28 AM 28.6625 -96.8361 203° Southwest 438 504 36,000  Level Houston Center
Tue 10:34:30 AM 28.5522 -96.8900 203° Southwest 433 498 36,000  Level Houston Center
Tue 10:35:32 AM 28.4417 -96.9422 203° Southwest 431 496 36,000  Level Houston Center
Tue 10:36:34 AM 28.3094 -97.0056 203° Southwest 430 495 36,000  Level Houston Center
Tue 10:37:36 AM 28.1978 -97.0600 203° Southwest 430 495 36,000  Level Houston Center
Tue 10:38:39 AM 28.0869 -97.1125 203° Southwest 427 491 36,000  Level Houston Center
Tue 10:39:41 AM 27.9667 -97.1692 203° Southwest 426 490 36,000  Level Houston Center
Tue 10:40:43 AM 27.8558 -97.2225 203° Southwest 425 489 36,000  Level Houston Center
Tue 10:41:45 AM 27.7456 -97.2747 203° Southwest 424 488 36,000  Level Houston Center
Tue 10:42:47 AM 27.6353 -97.3269 203° Southwest 423 487 36,000 -1,200 Level Houston Center
Tue 10:43:50 AM 27.5269 -97.3919 208° Southwest 430 495 33,500 -2,400 Descending Houston Center
Tue 10:44:52 AM 27.4228 -97.4678 213° Southwest 434 499 31,000 -2,371 Descending Houston Center
Tue 10:45:54 AM 27.3200 -97.5439 213° Southwest 434 499 28,600 -2,419 Descending Houston Center
Tue 10:46:56 AM 27.2097 -97.6242 213° Southwest 427 491 26,000 -2,419 Descending Houston Center
Tue 10:47:58 AM 27.1111 -97.6967 213° Southwest 418 481 23,600 -2,352 Descending Houston Center
Tue 10:49:01 AM 27.0142 -97.7658 212° Southwest 408 470 21,100 -2,444 Descending Houston Center
Tue 10:49:46 AM 26.9447 -97.8172 213° Southwest 393 452 19,200 -2,323 Descending Houston Center
Tue 10:50:03 AM 26.9206 -97.8336 211° Southwest 393 452 18,700 -2,127 Descending Houston Center
Tue 10:51:05 AM 26.8289 -97.9006 213° Southwest 391 450 16,400 -1,355 Descending Houston Center
Tue 10:52:07 AM 26.7372 -97.9656 212° Southwest 362 417 15,900 -1,597 Descending Houston Center
Tue 10:53:09 AM 26.6561 -98.0314 216° Southwest 359 413 13,100 -2,678 Descending Houston Center
Tue 10:54:08 AM 26.5792 -98.0975 218° Southwest 345 397 10,500 -2,500 Descending Houston Center
Tue 10:55:09 AM 26.5194 -98.1497 218° Southwest 272 313 8,100 -2,361 Descending Houston Center
Tue 10:56:10 AM 26.4578 -98.2044 218° Southwest 248 285 5,700 -2,186 Descending Houston Center
Tue 10:57:18 AM 26.4147 -98.2681 233° Southwest 244 281 3,400 -1,708 Descending Houston Center
Tue 10:58:20 AM 26.3653 -98.3181 222° Southwest 228 262 2,000 -629 Descending Houston Center
Tue 10:59:22 AM 26.3275 -98.3542 221° Southwest 210 242 2,100  Climbing Houston Center
Tue 11:00:24 AM 26.2725 -98.3289 158° South 202 232 2,000 -375 Descending Houston Center
Tue 11:01:14 AM 26.2364 -98.2983 143° Southeast 192 221 1,400 -476 Descending Houston Center
Tue 11:01:27 AM 26.2319 -98.2922 129° Southeast 191 220 1,500 -590 Climbing Houston Center
Tue 11:02:15 AM 26.2106 -98.2736 142° Southeast 114 131 800 -677 Descending Houston Center
Tue 11:02:29 AM 26.2050 -98.2672 134° Southeast 127 146 800 -158 Level Houston Center
Tue 11:03:31 AM 26.1781 -98.2447 143° Southeast 124 143 600 -194 Descending Houston Center

Login

Don't have an account? Register now (free) for customized features, flight alerts, and more!